createdAt,value
2023-05-13T00:01:56.676Z,14.80
2023-05-13T00:04:44.572Z,14.80
2023-05-13T00:07:31.063Z,14.80
2023-05-13T00:10:17.605Z,14.60
2023-05-13T00:13:04.447Z,14.70
2023-05-13T00:15:51.230Z,14.60
2023-05-13T00:18:37.864Z,14.60
2023-05-13T00:21:26.238Z,14.60
2023-05-13T00:24:12.844Z,14.60
2023-05-13T00:27:00.163Z,14.50
2023-05-13T00:29:46.709Z,14.50
2023-05-13T00:32:33.239Z,14.50
2023-05-13T00:35:20.290Z,14.40
2023-05-13T00:38:08.477Z,14.40
2023-05-13T00:40:54.815Z,14.40
2023-05-13T00:43:41.328Z,14.40
2023-05-13T00:46:33.078Z,14.40
2023-05-13T00:49:19.767Z,14.40
2023-05-13T00:52:07.101Z,14.30
2023-05-13T00:54:54.895Z,14.40
2023-05-13T00:57:41.607Z,14.40
2023-05-13T01:00:28.832Z,14.30
2023-05-13T01:03:21.055Z,14.30
2023-05-13T01:06:12.731Z,14.30
2023-05-13T01:09:08.481Z,14.30
2023-05-13T01:11:57.155Z,14.30
2023-05-13T01:14:50.487Z,14.30
2023-05-13T01:17:43.687Z,14.30
2023-05-13T01:20:32.099Z,14.20
2023-05-13T01:23:20.221Z,14.20
2023-05-13T01:26:06.891Z,14.20
2023-05-13T01:28:53.870Z,14.10
2023-05-13T01:31:42.475Z,14.00
2023-05-13T01:34:29.828Z,14.00
2023-05-13T01:37:16.468Z,14.00
2023-05-13T01:40:14.297Z,14.00
2023-05-13T01:43:07.362Z,13.90
2023-05-13T01:45:53.833Z,14.00
2023-05-13T01:48:40.180Z,14.10
2023-05-13T01:51:26.541Z,14.00
2023-05-13T01:54:12.928Z,14.00
2023-05-13T01:57:00.703Z,14.00
2023-05-13T01:59:47.602Z,13.90
2023-05-13T02:02:33.980Z,13.90
2023-05-13T02:05:20.967Z,13.80
2023-05-13T02:08:08.052Z,13.60
2023-05-13T02:10:57.776Z,13.70
2023-05-13T02:13:45.972Z,13.60
2023-05-13T02:16:32.991Z,13.70
2023-05-13T02:19:19.829Z,13.60
2023-05-13T02:22:06.376Z,13.50
2023-05-13T02:24:53.345Z,13.50
2023-05-13T02:27:39.735Z,13.30
2023-05-13T02:30:27.893Z,13.50
2023-05-13T02:33:14.648Z,13.50
2023-05-13T02:36:01.685Z,13.40
2023-05-13T02:38:48.127Z,13.40
2023-05-13T02:41:34.454Z,13.40
2023-05-13T02:44:20.944Z,13.30
2023-05-13T02:47:08.620Z,13.30
2023-05-13T02:49:56.185Z,13.30
2023-05-13T02:52:43.047Z,13.30
2023-05-13T02:55:29.771Z,13.30
2023-05-13T02:58:16.484Z,13.30
2023-05-13T03:01:02.987Z,13.30
2023-05-13T03:03:51.517Z,13.20
2023-05-13T03:06:38.305Z,13.20
2023-05-13T03:09:24.708Z,13.10
2023-05-13T03:12:11.230Z,13.10
2023-05-13T03:14:57.606Z,12.90
2023-05-13T03:17:44.544Z,13.00
2023-05-13T03:20:33.354Z,13.00
2023-05-13T03:23:20.223Z,13.00
2023-05-13T03:26:06.715Z,12.90
2023-05-13T03:28:53.174Z,12.90
2023-05-13T03:31:39.834Z,12.90
2023-05-13T03:34:26.280Z,12.90
2023-05-13T03:37:14.148Z,12.80
2023-05-13T03:40:00.818Z,12.80
2023-05-13T03:42:47.079Z,12.80
2023-05-13T03:45:33.627Z,12.80
2023-05-13T03:48:21.285Z,12.70
2023-05-13T03:51:08.028Z,12.80
2023-05-13T03:53:56.186Z,12.80
2023-05-13T03:56:43.041Z,12.80
2023-05-13T03:59:29.435Z,12.80
2023-05-13T04:02:15.778Z,12.70
2023-05-13T04:05:02.728Z,12.80
2023-05-13T04:07:49.664Z,12.80
2023-05-13T04:10:37.271Z,12.80
2023-05-13T04:13:23.694Z,12.80
2023-05-13T04:16:10.236Z,12.80
2023-05-13T04:18:56.601Z,12.80
2023-05-13T04:21:43.530Z,12.90
2023-05-13T04:24:29.873Z,12.80
2023-05-13T04:27:17.536Z,12.80
2023-05-13T04:30:04.394Z,12.80
2023-05-13T04:32:51.400Z,12.80
2023-05-13T04:35:38.233Z,12.80
2023-05-13T04:38:24.767Z,12.90
2023-05-13T04:41:11.213Z,12.90
2023-05-13T04:43:58.873Z,12.90
2023-05-13T04:46:45.589Z,13.00
2023-05-13T04:49:32.414Z,12.90
2023-05-13T04:52:19.658Z,13.00
2023-05-13T04:55:06.507Z,13.00
2023-05-13T04:57:53.216Z,13.10
2023-05-13T05:00:41.056Z,13.10
2023-05-13T05:03:27.757Z,13.20
2023-05-13T05:06:14.052Z,13.20
2023-05-13T05:09:00.791Z,13.30
2023-05-13T05:11:47.265Z,13.30
2023-05-13T05:14:34.079Z,13.30
2023-05-13T05:17:22.430Z,13.40
2023-05-13T05:20:10.145Z,13.30
2023-05-13T05:22:56.924Z,13.40
2023-05-13T05:25:43.369Z,13.40
2023-05-13T05:28:29.726Z,13.50
2023-05-13T05:31:16.337Z,13.50
2023-05-13T05:34:04.363Z,13.60
2023-05-13T05:36:50.726Z,13.60
2023-05-13T05:39:37.214Z,13.70
2023-05-13T05:42:23.691Z,13.70
2023-05-13T05:45:10.796Z,13.80
2023-05-13T05:47:57.856Z,13.90
2023-05-13T05:50:45.766Z,14.10
2023-05-13T05:53:33.015Z,14.00
2023-05-13T05:56:19.909Z,14.10
2023-05-13T05:59:06.836Z,14.10
2023-05-13T06:01:53.394Z,14.20
2023-05-13T06:04:41.814Z,14.30
2023-05-13T06:07:29.667Z,14.40
2023-05-13T06:10:16.406Z,14.50
2023-05-13T06:13:02.840Z,14.50
2023-05-13T06:15:49.154Z,14.60
2023-05-13T06:18:36.216Z,14.70
2023-05-13T06:21:22.609Z,14.80
2023-05-13T06:24:10.824Z,14.90
2023-05-13T06:26:57.507Z,15.00
2023-05-13T06:29:43.926Z,15.10
2023-05-13T06:32:30.469Z,15.10
2023-05-13T06:35:16.965Z,15.20
2023-05-13T06:38:03.700Z,15.30
2023-05-13T06:40:51.334Z,15.40
2023-05-13T06:43:38.818Z,15.50
2023-05-13T06:46:25.577Z,15.50
2023-05-13T06:49:11.815Z,15.50
2023-05-13T06:51:58.102Z,15.60
2023-05-13T06:54:44.535Z,15.60
2023-05-13T06:57:41.838Z,15.70
2023-05-13T07:00:29.566Z,15.80
2023-05-13T07:03:16.245Z,15.90
2023-05-13T07:06:03.184Z,16.00
2023-05-13T07:08:49.688Z,16.00
2023-05-13T07:11:36.216Z,16.10
2023-05-13T07:14:26.112Z,16.20
2023-05-13T07:17:12.756Z,16.30
2023-05-13T07:19:59.228Z,16.30
2023-05-13T07:22:45.706Z,16.40
2023-05-13T07:25:32.208Z,16.40
2023-05-13T07:28:19.305Z,16.50
2023-05-13T07:31:07.541Z,16.60
2023-05-13T07:33:54.557Z,16.70
2023-05-13T07:36:41.728Z,16.80
2023-05-13T07:39:28.330Z,16.90
2023-05-13T07:42:15.350Z,17.00
2023-05-13T07:45:01.837Z,17.10
2023-05-13T07:47:49.674Z,17.20
2023-05-13T07:50:36.580Z,17.30
2023-05-13T07:53:23.400Z,17.40
2023-05-13T07:56:10.134Z,17.30
2023-05-13T07:58:56.545Z,17.40
2023-05-13T08:01:43.908Z,17.50
2023-05-13T08:04:31.731Z,17.50
2023-05-13T08:07:18.299Z,17.60
2023-05-13T08:10:05.448Z,17.80
2023-05-13T08:12:57.536Z,17.80
2023-05-13T08:15:44.479Z,18.00
2023-05-13T08:18:31.341Z,18.10
2023-05-13T08:21:19.410Z,18.30
2023-05-13T08:24:06.122Z,18.30
2023-05-13T08:26:52.558Z,18.40
2023-05-13T08:29:39.363Z,18.40
2023-05-13T08:32:25.895Z,18.50
2023-05-13T08:35:12.687Z,18.70
2023-05-13T08:38:00.512Z,18.70
2023-05-13T08:40:47.672Z,18.80
2023-05-13T08:43:34.934Z,18.90
2023-05-13T08:46:25.173Z,18.90
2023-05-13T08:49:12.389Z,19.00
2023-05-13T08:51:59.120Z,19.10
2023-05-13T08:54:47.415Z,19.20
2023-05-13T08:57:34.132Z,19.40
2023-05-13T09:00:21.876Z,19.60
2023-05-13T09:03:09.303Z,19.70
2023-05-13T09:05:56.476Z,19.70
2023-05-13T09:08:43.229Z,19.90
2023-05-13T09:11:33.457Z,20.00
2023-05-13T09:14:20.798Z,20.20
2023-05-13T09:17:07.858Z,20.40
2023-05-13T09:19:54.191Z,20.30
2023-05-13T09:22:47.480Z,21.70
2023-05-13T09:25:34.606Z,20.40
2023-05-13T09:28:23.641Z,20.50
2023-05-13T09:31:10.329Z,20.60
2023-05-13T09:33:57.899Z,20.70
2023-05-13T09:36:44.956Z,20.90
2023-05-13T09:39:34.104Z,20.80
2023-05-13T09:42:21.998Z,21.10
2023-05-13T09:45:11.928Z,21.20
2023-05-13T09:47:58.408Z,21.30
2023-05-13T09:50:49.918Z,21.40
2023-05-13T09:53:36.418Z,21.50
2023-05-13T09:56:25.011Z,21.70
2023-05-13T09:59:11.843Z,21.90
2023-05-13T10:02:04.896Z,22.00
2023-05-13T10:04:51.948Z,22.30
2023-05-13T10:07:39.393Z,22.40
2023-05-13T10:10:26.100Z,22.50
2023-05-13T10:13:15.846Z,22.60
2023-05-13T10:16:02.349Z,22.60
2023-05-13T10:18:50.277Z,23.70
2023-05-13T10:21:38.128Z,22.90
2023-05-13T10:24:27.084Z,22.90
2023-05-13T10:27:14.416Z,23.10
2023-05-13T10:30:03.656Z,23.20
2023-05-13T10:32:51.807Z,23.20
2023-05-13T10:35:44.377Z,23.10
2023-05-13T10:38:48.183Z,23.10
2023-05-13T10:42:04.464Z,23.30
2023-05-13T10:44:55.548Z,23.30
2023-05-13T10:47:42.001Z,23.60
2023-05-13T10:50:29.315Z,23.80
2023-05-13T10:53:22.091Z,23.90
2023-05-13T10:56:08.786Z,23.90
2023-05-13T10:58:59.964Z,24.00
2023-05-13T11:01:47.300Z,24.20
2023-05-13T11:04:33.936Z,24.10
2023-05-13T11:07:20.287Z,24.30
2023-05-13T11:10:26.210Z,24.20
2023-05-13T11:13:25.560Z,24.50
2023-05-13T11:16:14.572Z,24.70
2023-05-13T11:19:03.644Z,24.80
2023-05-13T11:21:53.002Z,24.80
2023-05-13T11:24:40.371Z,24.90
2023-05-13T11:27:28.659Z,24.80
2023-05-13T11:30:24.093Z,24.90
2023-05-13T11:33:12.410Z,25.00
2023-05-13T11:35:59.586Z,25.20
2023-05-13T11:38:45.885Z,25.30
2023-05-13T11:41:33.429Z,25.20
2023-05-13T11:44:22.660Z,25.40
2023-05-13T11:47:09.290Z,25.50
2023-05-13T11:49:55.972Z,25.50
2023-05-13T11:52:42.967Z,25.70
2023-05-13T11:55:31.162Z,25.80
2023-05-13T11:58:17.820Z,25.50
2023-05-13T12:01:05.869Z,25.30
2023-05-13T12:04:02.509Z,25.50
2023-05-13T12:06:49.397Z,25.50
2023-05-13T12:09:36.228Z,25.50
2023-05-13T12:12:22.994Z,25.00
2023-05-13T12:15:11.947Z,25.40
2023-05-13T12:18:00.300Z,25.60
2023-05-13T12:20:47.104Z,25.70
2023-05-13T12:23:40.744Z,25.70
2023-05-13T12:26:27.567Z,25.90
2023-05-13T12:29:14.636Z,26.00
2023-05-13T12:32:06.048Z,26.20
2023-05-13T12:34:54.304Z,26.30
2023-05-13T12:37:41.366Z,26.40
2023-05-13T12:40:28.252Z,26.50
2023-05-13T12:43:15.491Z,26.60
2023-05-13T12:46:01.895Z,26.70
2023-05-13T12:48:48.321Z,26.80
2023-05-13T12:51:36.112Z,26.70
2023-05-13T12:54:22.718Z,26.60
2023-05-13T12:57:10.110Z,26.70
2023-05-13T12:59:56.562Z,26.20
2023-05-13T13:02:43.243Z,26.30
2023-05-13T13:05:30.174Z,26.60
2023-05-13T13:08:18.131Z,26.80
2023-05-13T13:11:05.257Z,26.80
2023-05-13T13:13:51.793Z,26.70
2023-05-13T13:16:38.229Z,26.90
2023-05-13T13:19:24.790Z,27.00
2023-05-13T13:22:11.677Z,27.00
2023-05-13T13:24:59.805Z,26.80
2023-05-13T13:27:46.303Z,26.10
2023-05-13T13:30:32.722Z,25.70
2023-05-13T13:33:20.909Z,25.70
2023-05-13T13:36:08.172Z,25.70
2023-05-13T13:38:54.831Z,27.50
2023-05-13T13:41:43.287Z,26.30
2023-05-13T13:44:30.017Z,26.30
2023-05-13T13:47:16.673Z,26.70
2023-05-13T13:50:03.615Z,26.80
2023-05-13T13:52:52.352Z,26.60
2023-05-13T13:55:38.948Z,26.70
2023-05-13T13:58:26.672Z,26.70
2023-05-13T14:01:13.180Z,26.90
2023-05-13T14:04:12.015Z,26.90
2023-05-13T14:06:58.684Z,27.10
2023-05-13T14:09:45.145Z,27.00
2023-05-13T14:12:31.610Z,27.20
2023-05-13T14:15:19.438Z,27.10
2023-05-13T14:18:06.708Z,27.10
2023-05-13T14:20:53.519Z,27.00
2023-05-13T14:23:42.318Z,27.20
2023-05-13T14:26:29.046Z,27.20
2023-05-13T14:29:15.990Z,27.40
2023-05-13T14:32:04.255Z,27.40
2023-05-13T14:34:50.632Z,27.30
2023-05-13T14:37:37.148Z,27.20
2023-05-13T14:40:23.970Z,27.50
2023-05-13T14:43:10.521Z,27.70
2023-05-13T14:45:57.164Z,27.80
2023-05-13T14:48:45.163Z,27.10
2023-05-13T14:51:31.831Z,26.60
2023-05-13T14:54:18.678Z,26.30
2023-05-13T14:57:06.613Z,26.30
2023-05-13T14:59:53.057Z,26.70
2023-05-13T15:02:39.814Z,27.00
2023-05-13T15:05:27.902Z,27.00
2023-05-13T15:08:14.696Z,27.00
2023-05-13T15:11:01.374Z,27.20
2023-05-13T15:13:48.200Z,27.30
2023-05-13T15:16:34.804Z,27.30
2023-05-13T15:19:21.800Z,27.30
2023-05-13T15:22:09.507Z,27.20
2023-05-13T15:24:56.007Z,27.30
2023-05-13T15:27:43.010Z,27.30
2023-05-13T15:30:30.945Z,27.40
2023-05-13T15:33:17.936Z,27.40
2023-05-13T15:36:05.749Z,27.20
2023-05-13T15:38:53.972Z,27.40
2023-05-13T15:41:41.380Z,27.40
2023-05-13T15:44:28.012Z,27.50
2023-05-13T15:47:14.463Z,27.40
2023-05-13T15:50:01.483Z,27.10
2023-05-13T15:52:48.444Z,26.50
2023-05-13T15:55:37.423Z,26.50
2023-05-13T15:58:23.819Z,26.70
2023-05-13T16:01:11.036Z,26.50
2023-05-13T16:03:57.750Z,25.80
2023-05-13T16:06:44.144Z,26.10
2023-05-13T16:09:30.594Z,26.30
2023-05-13T16:12:18.475Z,26.40
2023-05-13T16:15:05.607Z,26.40
2023-05-13T16:17:52.393Z,26.60
2023-05-13T16:20:39.387Z,26.50
2023-05-13T16:23:25.912Z,26.70
2023-05-13T16:26:12.308Z,26.30
2023-05-13T16:29:00.050Z,26.40
2023-05-13T16:31:46.535Z,26.50
2023-05-13T16:34:33.341Z,26.70
2023-05-13T16:37:19.983Z,26.70
2023-05-13T16:40:07.821Z,26.70
2023-05-13T16:42:55.042Z,26.90
2023-05-13T16:45:45.428Z,26.90
2023-05-13T16:48:32.293Z,26.80
2023-05-13T16:51:18.602Z,26.90
2023-05-13T16:54:04.982Z,26.90
2023-05-13T16:56:51.964Z,26.60
2023-05-13T16:59:38.315Z,26.60
2023-05-13T17:02:26.514Z,26.60
2023-05-13T17:05:13.536Z,26.70
2023-05-13T17:08:00.183Z,26.70
2023-05-13T17:10:47.094Z,26.70
2023-05-13T17:13:33.769Z,26.60
2023-05-13T17:16:20.890Z,26.60
2023-05-13T17:19:09.081Z,26.70
2023-05-13T17:21:55.834Z,26.70
2023-05-13T17:24:42.306Z,26.40
2023-05-13T17:27:28.689Z,26.60
2023-05-13T17:30:16.204Z,26.70
2023-05-13T17:33:03.049Z,26.60
2023-05-13T17:35:52.464Z,26.50
2023-05-13T17:38:39.085Z,26.30
2023-05-13T17:41:25.913Z,26.00
2023-05-13T17:44:12.985Z,25.80
2023-05-13T17:46:59.293Z,25.50
2023-05-13T17:49:45.626Z,25.30
2023-05-13T17:52:33.515Z,25.00
2023-05-13T17:55:20.175Z,25.10
2023-05-13T17:58:06.610Z,25.10
2023-05-13T18:00:53.325Z,25.00
2023-05-13T18:03:40.201Z,25.00
2023-05-13T18:06:26.663Z,24.80
2023-05-13T18:09:14.430Z,24.70
2023-05-13T18:12:01.173Z,24.50
2023-05-13T18:14:48.091Z,24.30
2023-05-13T18:17:34.595Z,24.10
2023-05-13T18:20:22.531Z,24.00
2023-05-13T18:23:09.205Z,23.90
2023-05-13T18:25:57.167Z,23.80
2023-05-13T18:28:44.897Z,23.60
2023-05-13T18:31:34.770Z,23.50
2023-05-13T18:34:21.594Z,23.40
2023-05-13T18:37:08.031Z,23.30
2023-05-13T18:39:54.268Z,23.10
2023-05-13T18:42:42.091Z,23.10
2023-05-13T18:45:29.023Z,23.00
2023-05-13T18:48:15.926Z,22.90
2023-05-13T18:51:02.268Z,22.90
2023-05-13T18:53:48.907Z,22.80
2023-05-13T18:56:36.206Z,22.60
2023-05-13T18:59:24.274Z,22.60
2023-05-13T19:02:11.475Z,22.40
2023-05-13T19:04:57.921Z,22.30
2023-05-13T19:07:44.174Z,22.20
2023-05-13T19:10:30.612Z,22.10
2023-05-13T19:13:19.818Z,22.00
2023-05-13T19:16:07.854Z,21.80
2023-05-13T19:18:54.543Z,21.70
2023-05-13T19:21:41.323Z,21.60
2023-05-13T19:24:27.717Z,21.50
2023-05-13T19:27:14.324Z,21.40
2023-05-13T19:30:01.438Z,21.20
2023-05-13T19:32:50.123Z,21.10
2023-05-13T19:35:37.151Z,20.90
2023-05-13T19:38:23.498Z,20.80
2023-05-13T19:41:09.930Z,20.70
2023-05-13T19:43:56.745Z,20.60
2023-05-13T19:46:43.596Z,20.50
2023-05-13T19:49:31.616Z,20.40
2023-05-13T19:52:18.421Z,20.40
2023-05-13T19:55:05.481Z,20.20
2023-05-13T19:57:52.190Z,20.10
2023-05-13T20:00:38.674Z,19.90
2023-05-13T20:03:25.548Z,19.90
2023-05-13T20:06:13.451Z,19.90
2023-05-13T20:09:00.843Z,19.80
2023-05-13T20:11:47.238Z,19.80
2023-05-13T20:14:44.692Z,19.70
2023-05-13T20:17:31.894Z,19.60
2023-05-13T20:20:19.152Z,19.50
2023-05-13T20:23:06.990Z,19.40
2023-05-13T20:25:53.983Z,19.40
2023-05-13T20:28:40.768Z,19.20
2023-05-13T20:31:27.392Z,19.20
2023-05-13T20:34:13.801Z,19.00
2023-05-13T20:37:00.161Z,19.00
2023-05-13T20:39:48.165Z,18.90
2023-05-13T20:42:34.977Z,18.80
2023-05-13T20:45:21.474Z,18.70
2023-05-13T20:48:09.012Z,18.70
2023-05-13T20:51:00.004Z,18.60
2023-05-13T20:53:47.352Z,18.60
2023-05-13T20:56:35.251Z,18.50
2023-05-13T20:59:21.555Z,18.40
2023-05-13T21:02:08.537Z,18.30
2023-05-13T21:04:54.857Z,18.20
2023-05-13T21:07:41.207Z,18.20
2023-05-13T21:10:27.763Z,18.20
2023-05-13T21:13:16.246Z,18.10
2023-05-13T21:16:04.906Z,18.10
2023-05-13T21:18:51.538Z,18.00
2023-05-13T21:21:38.487Z,17.90
2023-05-13T21:24:24.810Z,17.80
2023-05-13T21:27:11.151Z,17.80
2023-05-13T21:29:59.009Z,17.70
2023-05-13T21:32:45.455Z,17.60
2023-05-13T21:35:32.408Z,17.70
2023-05-13T21:38:19.001Z,17.60
2023-05-13T21:41:05.484Z,17.50
2023-05-13T21:43:51.989Z,17.50
2023-05-13T21:46:39.891Z,17.40
2023-05-13T21:49:26.560Z,17.40
2023-05-13T21:52:13.095Z,17.20
2023-05-13T21:55:00.205Z,17.20
2023-05-13T21:57:46.656Z,17.10
2023-05-13T22:00:33.172Z,17.00
2023-05-13T22:03:21.309Z,17.00
2023-05-13T22:06:08.114Z,16.90
2023-05-13T22:08:54.481Z,16.80
2023-05-13T22:11:41.043Z,16.80
2023-05-13T22:14:27.428Z,16.80
2023-05-13T22:17:13.980Z,16.70
2023-05-13T22:20:02.324Z,16.70
2023-05-13T22:22:48.866Z,16.70
2023-05-13T22:25:43.809Z,16.70
2023-05-13T22:28:31.219Z,16.60
2023-05-13T22:31:18.283Z,16.50
2023-05-13T22:34:05.078Z,16.40
2023-05-13T22:36:52.817Z,16.40
2023-05-13T22:39:39.545Z,16.40
2023-05-13T22:42:25.879Z,16.40
2023-05-13T22:45:13.162Z,16.30
2023-05-13T22:47:59.571Z,16.20
2023-05-13T22:50:46.433Z,16.00
2023-05-13T22:53:34.333Z,16.10
2023-05-13T22:56:21.916Z,16.10
2023-05-13T22:59:08.584Z,16.00
2023-05-13T23:01:55.202Z,16.00
2023-05-13T23:04:41.830Z,15.80
2023-05-13T23:07:28.335Z,15.80
2023-05-13T23:10:16.152Z,15.80
2023-05-13T23:13:05.654Z,15.80
2023-05-13T23:15:52.239Z,15.70
2023-05-13T23:18:38.558Z,15.80
2023-05-13T23:21:26.070Z,15.70
2023-05-13T23:24:12.530Z,15.70
2023-05-13T23:27:00.192Z,15.50
2023-05-13T23:29:46.827Z,15.50
2023-05-13T23:32:33.234Z,15.50
2023-05-13T23:35:19.690Z,15.40
2023-05-13T23:38:06.384Z,15.40
2023-05-13T23:40:53.962Z,15.30
2023-05-13T23:43:41.951Z,15.30
2023-05-13T23:46:28.668Z,15.30
2023-05-13T23:49:15.127Z,15.20
2023-05-13T23:52:01.449Z,15.10
2023-05-13T23:54:47.833Z,15.10
2023-05-13T23:57:34.326Z,15.00
